Current Weather

Lytton

Lytton, Canada (CWLY)

Report from: Tuesday, February 27, 2024 2:00 AM PST
Current time: Tuesday, February 27, 2024 3:11 AM PST

Nearby weather – Weather history – Daily summaries
Weather forecast

Temperature-6.0°C (21.2°F)
Wind chill-14.0°C (6.8°F)
Dew point-15.0°C (5.0°F)
Winds 15 kts (7.7 m/s, 17.3 mph) Vrb
Wind gusts 22 kts (11.3 m/s, 25.3 mph)
Winds variableWinds variable from North-Northwest (330°) to North-Northeast (30°)
Visibility9 mi. (14.5 km)
Clouds Ceiling: Overcast 9,600 ft. (2,926 m)
Altimeter30.01 in.Hg (1016 mB)
Relative humidity49 %
Density altitude-2,712 ft. (-826 m)
Sea-level pressure101.8 kPa (1018 mB, 30.05 in.Hg)
Remarks Fully automated report
Flight conditions Visual Meteorological Conditions
Raw dataCWLY 271000Z AUTO 36015G22KT 330V030 9SM OVC096 M06/M15 A3001 RMK SLP175
An error has occurred. This application may no longer respond until reloaded. Reload 🗙